Time;durP1;ratioP1;P1;durP2;ratioP2;P2;SDS_P1;SDS_P2;PMS_P1;PMS_P2;Temp;Humidity;BMP_temperature;BMP_pressure;BME280_temperature;BME280_humidity;BME280_pressure;Samples;Min_cycle;Max_cycle;Signal;HPM_P1;HPM_P2
2023/03/05 00:02:27;;;;;;;40.87;20.27;;;;;;;8.43;48.93;99105.94;7001477;28;20201;-80
2023/03/05 00:05:49;;;;;;;43.50;20.87;;;;;;;8.55;48.47;99096.41;6997710;28;20212;-82
2023/03/05 00:09:11;;;;;;;37.97;20.17;;;;;;;8.58;48.38;99098.72;6998663;28;20371;-80
2023/03/05 00:12:32;;;;;;;45.10;19.70;;;;;;;8.44;48.71;99095.00;7001957;28;20232;-79
2023/03/05 00:15:55;;;;;;;40.60;21.40;;;;;;;8.54;48.11;99073.25;7004469;28;20241;-79
2023/03/05 00:19:17;;;;;;;35.37;19.93;;;;;;;8.61;48.53;99104.53;7005706;28;20267;-80
2023/03/05 00:22:38;;;;;;;34.23;19.37;;;;;;;8.50;48.96;99101.50;7006154;28;20715;-80
2023/03/05 00:26:02;;;;;;;37.27;20.20;;;;;;;8.24;48.60;99045.53;7005596;28;20562;-80
2023/03/05 00:29:23;;;;;;;38.10;20.33;;;;;;;8.64;48.17;99088.06;7006076;28;20677;-80
2023/03/05 00:32:46;;;;;;;33.13;19.53;;;;;;;8.80;47.75;99087.88;7009546;28;20206;-80
2023/03/05 00:36:09;;;;;;;37.63;19.87;;;;;;;8.83;47.13;99081.28;7002012;28;20307;-80
2023/03/05 00:39:30;;;;;;;40.47;21.13;;;;;;;8.75;47.65;99082.22;7011911;28;20279;-81
2023/03/05 00:42:52;;;;;;;35.93;20.27;;;;;;;8.68;48.09;99077.78;7015732;28;20217;-79
2023/03/05 00:46:14;;;;;;;41.53;20.80;;;;;;;8.80;47.76;99070.91;7015482;28;20271;-81
2023/03/05 00:49:36;;;;;;;34.50;19.70;;;;;;;8.85;47.24;99080.06;7018631;28;20271;-81
2023/03/05 00:52:58;;;;;;;38.97;20.27;;;;;;;8.55;47.51;99048.03;7014696;28;20350;-80
2023/03/05 00:56:20;;;;;;;38.90;19.50;;;;;;;8.67;47.63;99044.66;7012899;28;20240;-79
2023/03/05 00:59:41;;;;;;;36.40;18.97;;;;;;;8.76;47.55;99069.59;7006705;28;20232;-80
2023/03/05 01:03:03;;;;;;;40.87;20.27;;;;;;;8.62;47.84;99049.81;7006532;28;20205;-79
2023/03/05 01:06:26;;;;;;;38.70;21.80;;;;;;;8.51;47.74;99031.47;7006796;28;20355;-79
2023/03/05 01:09:48;;;;;;;36.20;19.40;;;;;;;8.87;47.25;99069.13;7007916;28;20256;-79
2023/03/05 01:13:09;;;;;;;37.33;19.63;;;;;;;8.95;47.13;99064.47;7008172;28;20300;-80
2023/03/05 01:16:31;;;;;;;34.10;19.33;;;;;;;8.84;46.96;99059.56;7005444;28;20733;-80
2023/03/05 01:19:52;;;;;;;39.63;21.37;;;;;;;8.62;48.14;99055.19;6985244;28;20625;-80
2023/03/05 01:23:15;;;;;;;39.70;19.80;;;;;;;8.50;48.33;99023.56;6974992;28;20273;-80
2023/03/05 01:26:37;;;;;;;37.97;20.53;;;;;;;8.82;48.10;99052.72;6973508;28;20263;-79
2023/03/05 01:29:58;;;;;;;37.03;19.53;;;;;;;8.63;46.70;98994.19;6974920;28;20313;-80
2023/03/05 01:33:20;;;;;;;37.83;19.53;;;;;;;8.55;48.01;99002.34;6998489;28;20296;-80
2023/03/05 01:36:42;;;;;;;38.90;22.27;;;;;;;8.76;48.14;99037.34;7015130;28;20369;-80
2023/03/05 01:40:06;;;;;;;41.70;20.70;;;;;;;8.95;47.08;99042.16;7004878;28;20855;-80
2023/03/05 01:43:28;;;;;;;42.90;20.60;;;;;;;8.98;47.58;99032.66;7003820;28;20206;-79
2023/03/05 01:46:50;;;;;;;35.37;21.40;;;;;;;8.92;47.64;99010.25;7002754;28;20206;-80
2023/03/05 01:50:13;;;;;;;41.53;21.37;;;;;;;8.85;47.42;99028.97;7002984;28;20282;-80
2023/03/05 01:53:34;;;;;;;39.93;20.77;;;;;;;8.75;47.96;99019.56;7003497;28;20201;-80
2023/03/05 01:56:59;;;;;;;36.30;19.80;;;;;;;8.59;48.01;98988.34;7002704;28;20286;-80
2023/03/05 02:00:25;;;;;;;43.27;20.60;;;;;;;8.96;48.20;99014.22;7002248;28;20222;-80
2023/03/05 02:03:48;;;;;;;36.73;20.57;;;;;;;9.01;47.75;99009.13;7001294;28;20276;-80
2023/03/05 02:07:09;;;;;;;41.03;20.30;;;;;;;8.88;48.06;99008.94;6998614;28;20339;-79
2023/03/05 02:10:34;;;;;;;38.73;21.97;;;;;;;8.91;48.70;98995.97;6998649;28;20294;-81
2023/03/05 02:13:58;;;;;;;41.93;20.33;;;;;;;8.75;48.94;99004.28;6998942;28;20347;-81
2023/03/05 02:17:19;;;;;;;43.97;21.53;;;;;;;8.72;49.06;98993.88;6997961;28;20308;-80
2023/03/05 02:20:45;;;;;;;43.57;20.50;;;;;;;8.49;49.93;98993.19;6998411;28;20228;-80
2023/03/05 02:24:11;;;;;;;42.97;20.90;;;;;;;8.56;49.53;98969.09;6998484;28;20296;-81
2023/03/05 02:27:34;;;;;;;37.90;20.17;;;;;;;8.60;49.14;98960.44;6997953;28;20293;-79
2023/03/05 02:30:56;;;;;;;45.87;22.77;;;;;;;8.55;50.18;98987.06;6998264;28;20225;-81
2023/03/05 02:34:17;;;;;;;45.13;21.30;;;;;;;8.75;49.78;98987.28;6998693;28;20296;-82
2023/03/05 02:37:39;;;;;;;38.03;20.60;;;;;;;8.87;49.65;98983.09;6997124;28;20315;-80
2023/03/05 02:41:01;;;;;;;37.93;20.27;;;;;;;8.79;49.58;98983.22;6997908;28;20354;-80
2023/03/05 02:44:23;;;;;;;35.93;20.87;;;;;;;8.31;50.38;98952.44;6998762;28;20350;-79
2023/03/05 02:47:45;;;;;;;39.63;21.10;;;;;;;8.74;50.48;98972.19;6998035;28;20210;-79
2023/03/05 02:51:07;;;;;;;43.93;22.23;;;;;;;8.63;50.34;98976.22;6998272;28;20295;-79
2023/03/05 02:54:29;;;;;;;40.60;21.57;;;;;;;8.71;49.99;98964.53;6998136;28;20296;-79
2023/03/05 02:57:51;;;;;;;39.30;20.13;;;;;;;8.75;49.38;98963.09;6997824;28;20706;-80
2023/03/05 03:01:13;;;;;;;40.60;21.93;;;;;;;8.62;49.81;98936.94;6997941;28;20638;-79
2023/03/05 03:04:34;;;;;;;37.43;21.10;;;;;;;8.48;49.72;98902.84;6998042;28;20237;-80
2023/03/05 03:07:56;;;;;;;41.63;22.03;;;;;;;8.75;49.61;98942.44;6997785;28;20205;-79
2023/03/05 03:11:18;;;;;;;39.67;20.40;;;;;;;8.52;49.98;98948.97;6998133;28;20629;-79
2023/03/05 03:14:41;;;;;;;45.10;22.57;;;;;;;8.59;49.84;98947.19;6997083;28;20255;-79
2023/03/05 03:18:03;;;;;;;40.40;21.37;;;;;;;8.18;50.62;98941.50;6996252;28;20316;-80
2023/03/05 03:21:26;;;;;;;41.90;20.67;;;;;;;8.11;51.15;98937.91;6973535;28;20202;-80
2023/03/05 03:24:47;;;;;;;42.77;21.50;;;;;;;8.23;51.02;98949.88;6970540;28;20866;-80
2023/03/05 03:28:09;;;;;;;43.03;21.67;;;;;;;8.43;49.87;98907.13;6969712;28;20330;-79
2023/03/05 03:31:32;;;;;;;37.83;22.23;;;;;;;8.67;49.81;98931.78;6969811;28;20217;-79
2023/03/05 03:34:53;;;;;;;40.40;22.13;;;;;;;8.76;49.73;98936.03;6970708;28;20324;-81
2023/03/05 03:38:14;;;;;;;47.17;23.27;;;;;;;8.52;50.24;98925.63;6968302;28;20388;-79
2023/03/05 03:41:36;;;;;;;45.43;22.47;;;;;;;8.57;50.68;98927.75;6968664;28;20781;-80
2023/03/05 03:44:59;;;;;;;42.83;22.23;;;;;;;8.27;51.10;98926.16;6976129;28;20324;-79
2023/03/05 03:48:22;;;;;;;40.07;21.30;;;;;;;8.49;50.28;98907.19;6980253;28;20233;-79
2023/03/05 03:51:43;;;;;;;37.57;21.57;;;;;;;8.46;50.94;98912.97;7002271;28;20300;-79
2023/03/05 03:55:05;;;;;;;50.53;22.73;;;;;;;8.37;50.41;98916.75;7002236;28;20678;-79
2023/03/05 03:58:27;;;;;;;46.70;22.60;;;;;;;8.25;51.56;98918.28;7001316;28;20266;-79
2023/03/05 04:01:48;;;;;;;43.03;23.13;;;;;;;8.57;51.13;98904.41;7000869;28;20337;-81
2023/03/05 04:05:11;;;;;;;39.57;20.67;;;;;;;8.55;51.15;98911.81;7001123;28;20211;-79
2023/03/05 04:08:33;;;;;;;40.50;21.07;;;;;;;8.66;50.67;98905.94;6999856;28;20358;-79
2023/03/05 04:11:54;;;;;;;44.13;22.93;;;;;;;8.33;51.60;98895.84;7000733;28;20293;-79
2023/03/05 04:15:16;;;;;;;43.50;23.17;;;;;;;8.32;51.79;98899.56;6999938;28;20262;-80
2023/03/05 04:18:38;;;;;;;46.40;22.50;;;;;;;7.99;52.59;98896.44;6999388;28;20278;-79
2023/03/05 04:22:00;;;;;;;48.33;22.00;;;;;;;8.41;52.08;98901.09;7000653;28;20234;-79
2023/03/05 04:25:22;;;;;;;39.93;21.57;;;;;;;8.31;51.70;98893.34;7000551;28;20205;-79
2023/03/05 04:28:43;;;;;;;38.30;22.07;;;;;;;8.24;52.44;98891.63;6999804;28;20248;-79
2023/03/05 04:32:05;;;;;;;36.27;19.90;;;;;;;8.61;51.29;98889.53;7000083;28;20221;-81
2023/03/05 04:35:27;;;;;;;43.30;23.00;;;;;;;8.57;51.40;98888.28;7000533;28;20649;-79
2023/03/05 04:38:50;;;;;;;42.60;22.50;;;;;;;8.61;51.00;98884.19;6999196;28;20266;-79
2023/03/05 04:42:11;;;;;;;44.13;21.83;;;;;;;8.28;52.33;98885.69;6999578;28;20210;-81
2023/03/05 04:45:33;;;;;;;46.63;22.57;;;;;;;8.12;52.79;98883.16;6999735;28;20677;-79
2023/03/05 04:48:55;;;;;;;45.90;23.33;;;;;;;8.35;52.17;98865.09;6998913;28;20225;-79
2023/03/05 04:52:16;;;;;;;45.60;24.10;;;;;;;8.00;51.97;98819.38;6999961;28;20569;-79
2023/03/05 04:55:39;;;;;;;42.30;21.97;;;;;;;8.29;51.77;98868.53;6999237;28;20213;-81
2023/03/05 04:59:00;;;;;;;44.87;23.10;;;;;;;8.35;52.05;98883.91;6998584;28;20285;-79
2023/03/05 05:02:22;;;;;;;45.10;24.03;;;;;;;8.33;52.37;98885.09;6998826;28;20214;-80
2023/03/05 05:05:43;;;;;;;43.33;23.00;;;;;;;8.49;51.40;98860.69;6999046;28;20656;-79
2023/03/05 05:09:05;;;;;;;39.67;21.90;;;;;;;8.58;51.49;98871.13;7001337;28;20282;-79
2023/03/05 05:12:30;;;;;;;45.63;22.30;;;;;;;8.69;51.20;98859.88;7001881;28;20592;-80
2023/03/05 05:15:51;;;;;;;41.03;22.07;;;;;;;8.76;50.75;98865.31;6998725;28;20205;-80
2023/03/05 05:19:13;;;;;;;37.87;21.07;;;;;;;8.50;51.14;98822.91;6993945;28;20226;-79
2023/03/05 05:22:35;;;;;;;42.53;22.57;;;;;;;8.62;51.21;98867.06;6997054;28;20266;-80
2023/03/05 05:25:57;;;;;;;39.30;21.60;;;;;;;8.79;50.78;98859.56;6996578;28;20293;-80
2023/03/05 05:29:20;;;;;;;44.60;22.67;;;;;;;8.73;50.70;98861.16;6998628;28;20393;-80
2023/03/05 05:32:42;;;;;;;38.23;20.97;;;;;;;8.75;50.62;98866.34;6998151;28;20549;-81
2023/03/05 05:36:04;;;;;;;40.83;21.77;;;;;;;8.71;51.22;98868.56;6997623;28;20259;-80
2023/03/05 05:39:26;;;;;;;41.63;21.60;;;;;;;8.76;50.69;98865.31;6980583;28;20594;-81
2023/03/05 05:42:47;;;;;;;41.73;22.00;;;;;;;8.76;50.63;98859.94;6998083;28;20218;-79
2023/03/05 05:46:13;;;;;;;43.53;22.43;;;;;;;8.58;51.02;98862.22;6997256;28;20384;-80
2023/03/05 05:49:34;;;;;;;42.47;21.43;;;;;;;8.64;51.05;98867.69;7000070;28;20953;-81
2023/03/05 05:52:56;;;;;;;42.03;22.20;;;;;;;8.63;50.77;98874.09;7004036;28;20292;-80
2023/03/05 05:56:17;;;;;;;45.03;23.17;;;;;;;8.58;51.27;98863.06;6997623;28;20201;-80
2023/03/05 05:59:39;;;;;;;37.40;20.67;;;;;;;8.90;50.56;98861.72;6997849;28;20622;-79
2023/03/05 06:03:02;;;;;;;43.67;22.20;;;;;;;8.73;50.70;98865.72;6998477;28;20259;-79
2023/03/05 06:06:26;;;;;;;47.33;25.30;;;;;;;8.72;51.33;98864.84;6997393;28;20216;-79
2023/03/05 06:09:47;;;;;;;45.77;23.40;;;;;;;8.53;51.37;98873.56;6996700;28;20642;-79
2023/03/05 06:13:09;;;;;;;33.87;20.63;;;;;;;8.75;50.76;98869.03;6997021;28;20206;-79
2023/03/05 06:16:30;;;;;;;39.37;22.33;;;;;;;8.54;51.44;98871.72;6997271;28;20722;-79
2023/03/05 06:19:55;;;;;;;44.80;20.87;;;;;;;8.87;49.90;98868.31;6999739;28;20241;-78
2023/03/05 06:23:17;;;;;;;47.87;22.97;;;;;;;8.52;51.30;98871.06;6998381;28;20267;-79
2023/03/05 06:26:38;;;;;;;40.40;20.83;;;;;;;8.80;50.18;98866.59;6998299;28;20517;-79
2023/03/05 06:30:00;;;;;;;39.77;20.90;;;;;;;8.74;50.23;98862.00;6997333;28;20286;-78
2023/03/05 06:33:21;;;;;;;43.70;23.47;;;;;;;8.67;50.76;98853.84;6997406;28;20206;-79
2023/03/05 06:36:44;;;;;;;43.83;21.83;;;;;;;8.56;51.80;98865.13;6995427;28;20209;-80
2023/03/05 06:40:07;;;;;;;43.73;21.60;;;;;;;8.29;51.76;98860.47;6996459;28;20234;-80
2023/03/05 06:43:32;;;;;;;46.70;23.00;;;;;;;8.00;52.63;98857.81;6996045;28;20287;-79
2023/03/05 06:46:53;;;;;;;39.53;21.50;;;;;;;8.47;52.39;98858.19;6995289;28;20257;-79
2023/03/05 06:50:15;;;;;;;43.80;20.73;;;;;;;8.83;51.22;98856.28;6996269;28;20352;-80
2023/03/05 06:53:38;;;;;;;40.73;22.73;;;;;;;8.74;51.66;98849.41;6995792;28;20209;-80
2023/03/05 06:56:59;;;;;;;47.50;23.20;;;;;;;8.72;51.97;98848.72;6995408;28;20206;-80
2023/03/05 07:00:23;;;;;;;44.10;22.77;;;;;;;8.97;51.46;98847.34;6996075;28;20704;-78
2023/03/05 07:03:44;;;;;;;40.67;22.17;;;;;;;9.00;50.77;98846.94;6996058;28;20214;-79
2023/03/05 07:07:06;;;;;;;46.50;22.83;;;;;;;9.01;50.91;98851.28;6993243;28;20206;-78
2023/03/05 07:10:29;;;;;;;42.97;22.43;;;;;;;9.04;50.55;98854.41;6993304;28;20585;-79
2023/03/05 07:13:50;;;;;;;42.17;21.80;;;;;;;8.68;50.99;98806.31;6996168;28;20262;-79
2023/03/05 07:17:14;;;;;;;44.20;21.33;;;;;;;8.89;51.45;98852.81;6969196;28;20202;-78
2023/03/05 07:20:36;;;;;;;37.63;20.83;;;;;;;8.95;51.37;98841.28;6968420;28;20241;-80
2023/03/05 07:23:59;;;;;;;44.13;23.30;;;;;;;8.63;52.25;98849.91;6969084;28;20218;-80
2023/03/05 07:27:24;;;;;;;39.57;21.37;;;;;;;8.89;51.76;98825.94;6967255;28;20214;-78
2023/03/05 07:30:45;;;;;;;44.73;22.00;;;;;;;9.15;51.45;98843.13;6985655;28;20302;-78
2023/03/05 07:34:07;;;;;;;41.07;21.23;;;;;;;8.91;51.87;98821.19;6995841;28;20210;-78
2023/03/05 07:37:28;;;;;;;39.10;21.50;;;;;;;9.28;52.45;98840.53;6995393;28;20351;-81
2023/03/05 07:40:50;;;;;;;40.10;22.10;;;;;;;9.39;52.26;98831.91;6995294;28;20320;-81
2023/03/05 07:44:13;;;;;;;41.37;21.47;;;;;;;9.48;50.09;98825.38;6995541;28;20697;-80
2023/03/05 07:47:35;;;;;;;46.70;21.90;;;;;;;9.08;51.53;98834.19;6995743;28;20622;-80
2023/03/05 07:51:01;;;;;;;41.53;20.67;;;;;;;9.21;51.90;98831.56;6995240;28;20301;-79
2023/03/05 07:54:22;;;;;;;35.53;19.63;;;;;;;9.55;52.12;98822.69;6995279;28;20209;-80
2023/03/05 07:57:44;;;;;;;39.50;22.13;;;;;;;9.69;51.91;98830.66;6970515;28;20684;-81
2023/03/05 08:01:13;;;;;;;39.53;20.70;;;;;;;9.91;49.83;98818.75;6972590;28;20300;-79
2023/03/05 08:04:34;;;;;;;36.30;20.37;;;;;;;9.94;49.12;98820.22;6989020;28;20201;-79
2023/03/05 08:07:55;;;;;;;39.57;19.87;;;;;;;9.86;49.57;98809.63;6979418;28;20724;-79
2023/03/05 08:11:17;;;;;;;28.73;18.60;;;;;;;9.66;49.89;98830.22;6967622;28;20283;-78
2023/03/05 08:14:39;;;;;;;40.20;20.30;;;;;;;9.81;49.60;98831.75;6967535;28;20377;-79
2023/03/05 08:18:02;;;;;;;35.03;18.90;;;;;;;10.02;49.50;98833.50;6969840;28;20214;-81
2023/03/05 08:21:28;;;;;;;33.97;19.07;;;;;;;10.12;48.96;98820.53;6968785;28;20202;-79
2023/03/05 08:24:50;;;;;;;27.13;16.20;;;;;;;9.97;48.58;98817.94;6967727;28;20639;-79
2023/03/05 08:28:12;;;;;;;33.83;18.13;;;;;;;10.00;48.69;98792.47;6990931;28;20661;-81
2023/03/05 08:31:34;;;;;;;35.03;18.60;;;;;;;10.00;47.89;98770.94;6995968;28;20206;-80
2023/03/05 08:34:57;;;;;;;32.87;17.83;;;;;;;10.34;47.78;98819.34;6998118;28;20205;-79
2023/03/05 08:38:19;;;;;;;28.67;16.30;;;;;;;10.30;47.63;98824.34;7000789;28;20701;-79
2023/03/05 08:41:40;;;;;;;33.33;17.50;;;;;;;10.45;47.45;98819.59;6999905;28;20242;-79
2023/03/05 08:45:02;;;;;;;34.37;17.83;;;;;;;10.19;47.80;98806.06;6999541;28;20256;-79
2023/03/05 08:48:23;;;;;;;36.13;19.13;;;;;;;9.48;49.39;98816.44;6999500;28;20317;-79
2023/03/05 08:51:46;;;;;;;30.70;17.60;;;;;;;9.82;49.06;98817.28;7000651;28;20701;-79
2023/03/05 08:55:08;;;;;;;33.77;18.47;;;;;;;9.81;48.70;98807.50;6999223;28;20202;-80
2023/03/05 08:58:31;;;;;;;30.17;15.60;;;;;;;9.60;48.68;98815.69;7010855;28;20226;-80
2023/03/05 09:01:52;;;;;;;30.10;15.43;;;;;;;9.31;48.89;98812.41;7007544;28;20226;-80
2023/03/05 09:05:14;;;;;;;27.30;15.87;;;;;;;9.04;50.28;98803.31;7010203;28;20293;-79
2023/03/05 09:08:37;;;;;;;25.60;16.17;;;;;;;8.94;50.61;98799.31;7010662;28;20747;-79
2023/03/05 09:11:59;;;;;;;32.17;17.13;;;;;;;9.41;49.43;98799.44;7010313;28;20344;-79
2023/03/05 09:15:20;;;;;;;28.80;14.83;;;;;;;9.17;49.89;98806.09;7009852;28;20239;-80
2023/03/05 09:18:42;;;;;;;29.33;15.87;;;;;;;8.99;49.34;98778.03;7011330;28;20334;-79
2023/03/05 09:22:04;;;;;;;30.17;15.50;;;;;;;9.41;49.56;98792.19;7011519;28;20320;-79
2023/03/05 09:25:27;;;;;;;34.30;14.83;;;;;;;9.69;48.91;98752.56;7011634;28;20706;-79
2023/03/05 09:28:49;;;;;;;29.13;14.53;;;;;;;9.89;48.21;98787.66;7011696;28;20312;-79
2023/03/05 09:32:10;;;;;;;28.27;15.30;;;;;;;9.96;47.99;98786.66;7011572;28;20205;-78
2023/03/05 09:35:34;;;;;;;30.67;17.20;;;;;;;9.46;48.44;98749.34;7017320;28;20725;-78
2023/03/05 09:38:56;;;;;;;25.43;14.63;;;;;;;9.84;47.66;98779.34;7017738;28;20312;-79
2023/03/05 09:42:28;;;;;;;28.90;14.93;;;;;;;9.55;48.37;98776.94;7011055;28;20217;-79
2023/03/05 09:46:01;;;;;;;21.73;13.57;;;;;;;9.64;47.52;98724.63;7006876;28;20354;-80
2023/03/05 09:49:31;;;;;;;28.07;14.47;;;;;;;10.14;47.55;98768.09;7008875;28;20698;-80
2023/03/05 09:52:56;;;;;;;28.67;14.40;;;;;;;10.02;47.54;98744.63;7009174;28;20303;-79
2023/03/05 09:56:20;;;;;;;24.07;13.70;;;;;;;10.01;47.26;98764.50;7008519;28;20291;-79
2023/03/05 09:59:47;;;;;;;27.03;12.63;;;;;;;9.63;47.01;98733.72;7007864;28;20320;-80
2023/03/05 10:03:14;;;;;;;25.33;14.77;;;;;;;9.74;47.60;98778.91;7002530;28;20348;-79
2023/03/05 10:06:37;;;;;;;26.77;14.00;;;;;;;10.39;46.73;98766.50;7011672;28;20359;-79
2023/03/05 10:10:00;;;;;;;23.80;12.83;;;;;;;9.39;47.71;98761.94;6997951;28;20371;-79
2023/03/05 10:13:24;;;;;;;25.43;14.43;;;;;;;10.23;47.15;98755.28;6998058;28;20289;-78
2023/03/05 10:17:03;;;;;;;27.00;13.37;;;;;;;10.16;46.07;98757.13;6996627;28;20293;-79
2023/03/05 10:20:38;;;;;;;25.77;14.50;;;;;;;10.65;45.35;98763.00;6997409;28;20261;-79
2023/03/05 10:24:04;;;;;;;23.73;14.20;;;;;;;10.24;45.69;98744.31;6997580;28;20201;-79
2023/03/05 10:27:35;;;;;;;23.10;12.93;;;;;;;10.22;45.23;98732.06;6996855;28;20237;-79
2023/03/05 10:31:07;;;;;;;23.70;13.27;;;;;;;10.24;44.94;98711.97;6996745;28;20320;-79
2023/03/05 10:34:48;;;;;;;24.23;12.87;;;;;;;9.80;46.29;98748.50;6997057;28;20270;-78
2023/03/05 10:38:25;;;;;;;25.70;13.80;;;;;;;9.53;46.10;98671.34;6995404;28;20206;-78
2023/03/05 10:41:54;;;;;;;21.43;12.67;;;;;;;9.69;46.35;98725.66;6996407;28;20206;-79
2023/03/05 10:45:18;;;;;;;24.23;14.10;;;;;;;9.64;46.07;98713.84;6996592;28;20213;-78
2023/03/05 10:48:43;;;;;;;24.87;13.90;;;;;;;9.68;46.22;98731.25;6996599;28;20253;-80
2023/03/05 10:52:08;;;;;;;27.63;15.10;;;;;;;10.40;45.60;98725.03;6996948;28;20259;-79
2023/03/05 10:55:30;;;;;;;31.63;15.03;;;;;;;10.06;45.52;98711.75;7001759;28;20205;-79
2023/03/05 10:58:52;;;;;;;22.00;13.13;;;;;;;10.23;45.34;98718.41;7008878;28;20364;-79
2023/03/05 11:02:13;;;;;;;22.40;12.40;;;;;;;9.77;45.77;98705.81;6995233;28;20267;-79
2023/03/05 11:05:40;;;;;;;22.00;14.27;;;;;;;10.28;45.02;98715.09;6996539;28;20343;-79
2023/03/05 11:09:18;;;;;;;23.77;13.83;;;;;;;10.58;44.67;98701.00;6995863;28;20316;-78
2023/03/05 11:12:39;;;;;;;28.67;14.27;;;;;;;9.94;45.60;98672.94;6996098;28;20328;-79
2023/03/05 11:16:02;;;;;;;23.00;13.80;;;;;;;10.20;46.01;98699.09;6994647;28;20266;-79
2023/03/05 11:19:28;;;;;;;24.60;15.10;;;;;;;9.94;45.92;98681.03;6997131;28;20233;-79
2023/03/05 11:23:10;;;;;;;23.57;13.67;;;;;;;10.02;45.78;98688.91;6998012;28;20198;-79
2023/03/05 11:26:33;;;;;;;31.67;23.00;;;;;;;10.22;45.83;98667.41;6997283;28;20292;-79
2023/03/05 11:29:54;;;;;;;23.17;13.63;;;;;;;10.27;46.17;98673.81;6995844;28;20597;-79
2023/03/05 11:33:19;;;;;;;54.63;30.97;;;;;;;10.64;45.21;98673.19;6995750;28;20254;-79
2023/03/05 11:36:41;;;;;;;26.47;15.67;;;;;;;10.64;45.25;98672.38;6995071;28;20205;-79
2023/03/05 11:40:19;;;;;;;27.47;15.73;;;;;;;10.39;45.78;98674.06;6995817;28;20241;-79
2023/03/05 11:43:43;;;;;;;28.50;14.80;;;;;;;10.17;45.96;98672.59;6995651;28;20186;-79
2023/03/05 11:47:16;;;;;;;25.87;14.90;;;;;;;9.70;46.79;98667.28;6994996;28;20263;-79
2023/03/05 11:50:38;;;;;;;27.90;14.57;;;;;;;9.81;46.71;98662.13;6995464;28;20226;-79
2023/03/05 11:54:06;;;;;;;25.13;14.67;;;;;;;10.06;46.29;98647.09;6995352;28;20254;-80
2023/03/05 11:57:29;;;;;;;29.57;17.07;;;;;;;10.12;46.17;98653.50;6995279;28;20189;-79
2023/03/05 12:00:52;;;;;;;30.77;18.77;;;;;;;10.06;45.74;98624.69;6995121;28;20275;-79
2023/03/05 12:04:14;;;;;;;26.37;15.20;;;;;;;10.39;45.69;98639.03;6996497;28;20209;-79
2023/03/05 12:07:38;;;;;;;27.43;17.90;;;;;;;10.34;45.33;98614.56;6996822;28;20255;-80
2023/03/05 12:11:04;;;;;;;27.83;16.23;;;;;;;10.46;44.93;98591.31;6988988;28;20312;-80
2023/03/05 12:14:43;;;;;;;25.40;15.30;;;;;;;10.41;45.20;98623.47;7009283;28;20222;-80
2023/03/05 12:18:14;;;;;;;30.23;14.33;;;;;;;10.69;44.54;98629.44;6921406;28;20482;-80
2023/03/05 12:21:37;;;;;;;23.63;14.97;;;;;;;10.20;45.43;98596.72;6918418;28;20257;-79
2023/03/05 12:25:23;;;;;;;26.23;14.93;;;;;;;10.39;45.11;98615.56;6918466;28;20280;-80
2023/03/05 12:28:58;;;;;;;21.63;13.67;;;;;;;10.90;44.17;98603.06;6890748;28;20319;-79
2023/03/05 12:33:00;;;;;;;21.63;13.63;;;;;;;10.68;43.94;98603.53;6901088;28;20354;-79
2023/03/05 12:36:38;;;;;;;23.77;13.97;;;;;;;10.57;43.99;98588.81;6915060;28;20331;-81
2023/03/05 12:40:03;;;;;;;24.13;13.97;;;;;;;10.62;44.10;98578.22;6914632;28;20227;-78
2023/03/05 12:43:29;;;;;;;20.13;12.83;;;;;;;10.33;43.93;98573.28;6913966;28;20922;-80
2023/03/05 12:47:16;;;;;;;23.27;13.80;;;;;;;10.64;43.63;98578.03;6913073;28;20231;-79
2023/03/05 12:50:48;;;;;;;20.53;12.33;;;;;;;10.45;44.05;98560.03;6913575;28;20228;-80
2023/03/05 12:54:30;;;;;;;26.83;14.33;;;;;;;10.53;44.08;98566.03;6940207;28;20286;-80
2023/03/05 12:57:56;;;;;;;27.27;15.17;;;;;;;10.66;43.79;98554.38;6999054;28;20563;-79
2023/03/05 13:01:30;;;;;;;21.90;12.20;;;;;;;10.58;44.16;98551.91;6996569;28;20632;-79
2023/03/05 13:04:53;;;;;;;25.33;14.53;;;;;;;10.54;44.14;98559.59;6971792;28;20234;-79
2023/03/05 13:08:20;;;;;;;23.67;14.23;;;;;;;10.67;44.41;98559.56;6971158;28;20268;-79
2023/03/05 13:11:46;;;;;;;25.20;15.03;;;;;;;10.60;44.55;98517.47;6971591;28;20182;-80
2023/03/05 13:15:13;;;;;;;24.53;13.93;;;;;;;10.14;45.26;98517.56;6971880;28;20206;-80
2023/03/05 13:18:35;;;;;;;26.13;17.07;;;;;;;10.79;44.42;98549.75;6971069;28;20379;-80
2023/03/05 13:22:01;;;;;;;26.87;15.27;;;;;;;10.27;45.05;98551.75;6971283;28;20740;-79
2023/03/05 13:25:22;;;;;;;30.97;16.13;;;;;;;10.68;44.73;98538.81;6971482;28;20211;-79
2023/03/05 13:29:03;;;;;;;22.70;14.80;;;;;;;10.93;44.46;98543.28;6970675;28;20234;-79
2023/03/05 13:32:25;;;;;;;28.57;15.03;;;;;;;10.45;44.80;98517.72;6971638;28;20225;-79
2023/03/05 13:35:48;;;;;;;22.67;14.00;;;;;;;10.86;44.90;98536.28;6971047;28;20775;-79
2023/03/05 13:39:21;;;;;;;27.07;15.27;;;;;;;10.93;44.50;98545.16;6970674;28;20227;-79
2023/03/05 13:42:42;;;;;;;26.03;14.53;;;;;;;10.34;45.89;98531.84;6970653;28;20236;-80
2023/03/05 13:46:05;;;;;;;25.07;15.90;;;;;;;10.09;46.08;98535.41;6970482;28;20222;-80
2023/03/05 13:49:27;;;;;;;25.77;15.40;;;;;;;10.38;45.85;98527.69;6970321;28;20261;-79
2023/03/05 13:52:49;;;;;;;26.73;14.27;;;;;;;10.19;45.85;98523.16;6971554;28;20242;-79
2023/03/05 13:56:19;;;;;;;26.13;16.13;;;;;;;10.06;46.85;98507.03;6970625;28;20213;-78
2023/03/05 13:59:41;;;;;;;24.40;14.63;;;;;;;10.57;45.62;98520.59;6979197;28;20233;-79
2023/03/05 14:03:10;;;;;;;24.37;14.33;;;;;;;10.24;46.61;98509.06;6993504;28;20625;-78
2023/03/05 14:06:32;;;;;;;23.67;14.93;;;;;;;10.38;46.50;98522.31;7002294;28;20604;-79
2023/03/05 14:09:55;;;;;;;24.07;14.03;;;;;;;10.27;46.33;98503.28;7002155;28;20850;-79
2023/03/05 14:13:19;;;;;;;23.13;15.13;;;;;;;10.40;45.11;98477.09;6982706;28;20704;-78
2023/03/05 14:16:40;;;;;;;26.53;14.40;;;;;;;10.60;45.27;98499.44;6989642;28;20230;-79
2023/03/05 14:20:26;;;;;;;31.70;15.30;;;;;;;10.27;45.48;98493.31;6980120;28;20289;-79
2023/03/05 14:23:50;;;;;;;24.50;15.43;;;;;;;10.71;45.62;98496.09;6993485;28;20201;-79
2023/03/05 14:27:18;;;;;;;26.70;14.43;;;;;;;10.76;44.92;98481.97;6985364;28;20553;-79
2023/03/05 14:30:45;;;;;;;28.57;14.80;;;;;;;10.39;45.11;98490.81;6997010;28;20274;-79
2023/03/05 14:34:07;;;;;;;22.33;13.37;;;;;;;9.85;46.29;98495.59;6996884;28;20234;-79
2023/03/05 14:37:33;;;;;;;23.57;13.97;;;;;;;9.75;46.50;98482.56;6991044;28;20260;-78
2023/03/05 14:40:55;;;;;;;19.90;12.93;;;;;;;9.99;45.75;98424.56;6982667;28;20361;-79
2023/03/05 14:44:18;;;;;;;19.80;11.23;;;;;;;10.10;44.49;98480.50;6976921;28;20618;-80
2023/03/05 14:47:39;;;;;;;20.40;11.37;;;;;;;9.65;45.07;98474.09;6996842;28;20710;-79
2023/03/05 14:51:01;;;;;;;18.10;10.63;;;;;;;9.93;44.97;98471.16;6983552;28;20250;-80
2023/03/05 14:54:25;;;;;;;16.87;11.00;;;;;;;10.14;43.74;98460.16;6983433;28;20259;-80
2023/03/05 14:57:50;;;;;;;14.50;10.37;;;;;;;9.60;44.82;98419.22;6983218;28;20217;-79
2023/03/05 15:01:12;;;;;;;18.57;11.80;;;;;;;10.25;44.22;98454.13;6999880;28;20236;-80
2023/03/05 15:04:33;;;;;;;18.20;12.07;;;;;;;10.08;44.57;98448.38;7013587;28;20213;-80
2023/03/05 15:07:55;;;;;;;19.50;11.23;;;;;;;9.93;44.45;98441.53;7012234;28;20233;-79
2023/03/05 15:11:18;;;;;;;21.37;13.23;;;;;;;9.96;44.88;98441.97;7013811;28;20256;-80
2023/03/05 15:14:41;;;;;;;22.43;11.77;;;;;;;9.50;44.82;98406.19;7007674;28;20267;-79
2023/03/05 15:18:02;;;;;;;18.70;10.50;;;;;;;9.74;45.35;98445.09;6996530;28;20209;-79
2023/03/05 15:21:24;;;;;;;22.07;11.93;;;;;;;9.76;45.49;98438.47;6996980;28;20355;-79
2023/03/05 15:24:45;;;;;;;22.10;11.83;;;;;;;9.90;45.37;98431.19;6996669;28;20206;-79
2023/03/05 15:28:08;;;;;;;20.80;12.27;;;;;;;9.63;45.54;98422.31;6996607;28;20251;-80
2023/03/05 15:31:37;;;;;;;20.40;12.70;;;;;;;10.03;45.36;98423.94;7002202;28;20210;-80
2023/03/05 15:34:59;;;;;;;25.33;12.43;;;;;;;9.87;45.33;98415.47;7005143;28;20209;-79
2023/03/05 15:38:20;;;;;;;21.90;12.83;;;;;;;9.93;44.97;98428.91;7000907;28;20688;-79
2023/03/05 15:41:41;;;;;;;22.90;12.93;;;;;;;9.91;45.66;98417.50;6999159;28;20282;-80
2023/03/05 15:45:05;;;;;;;18.97;11.60;;;;;;;9.86;45.10;98406.53;6994854;28;20747;-80